createdAt,value
2023-02-02T00:01:33.378Z,3.06
2023-02-02T00:04:01.555Z,3.03
2023-02-02T00:06:30.405Z,3.07
2023-02-02T00:08:59.761Z,3.10
2023-02-02T00:11:27.789Z,3.14
2023-02-02T00:13:55.708Z,3.13
2023-02-02T00:16:26.736Z,3.11
2023-02-02T00:18:59.450Z,3.13
2023-02-02T00:21:27.623Z,3.15
2023-02-02T00:23:55.738Z,3.14
2023-02-02T00:26:23.821Z,3.19
2023-02-02T00:28:52.610Z,3.22
2023-02-02T00:31:20.631Z,3.19
2023-02-02T00:33:49.437Z,3.16
2023-02-02T00:36:21.628Z,3.18
2023-02-02T00:38:50.265Z,3.20
2023-02-02T00:41:18.273Z,3.22
2023-02-02T00:44:06.224Z,3.23
2023-02-02T00:46:34.215Z,3.22
2023-02-02T00:49:02.261Z,3.22
2023-02-02T00:51:30.328Z,3.23
2023-02-02T00:53:59.440Z,3.23
2023-02-02T00:56:27.436Z,3.23
2023-02-02T00:58:55.514Z,3.22
2023-02-02T01:01:23.785Z,3.22
2023-02-02T01:03:52.022Z,3.22
2023-02-02T01:06:20.043Z,3.23
2023-02-02T01:08:48.070Z,3.24
2023-02-02T01:11:16.661Z,3.25
2023-02-02T01:13:44.777Z,3.25
2023-02-02T01:16:13.290Z,3.27
2023-02-02T01:18:41.452Z,3.26
2023-02-02T01:21:10.771Z,3.26
2023-02-02T01:23:38.954Z,3.25
2023-02-02T01:26:09.273Z,3.24
2023-02-02T01:28:37.394Z,3.26
2023-02-02T01:31:10.338Z,3.28
2023-02-02T01:33:38.636Z,3.31
2023-02-02T01:36:08.607Z,3.34
2023-02-02T01:38:36.760Z,3.36
2023-02-02T01:41:05.111Z,3.37
2023-02-02T01:43:43.176Z,3.34
2023-02-02T01:46:16.056Z,3.32
2023-02-02T01:48:48.907Z,3.32
2023-02-02T01:51:19.301Z,3.34
2023-02-02T01:53:48.221Z,3.33
2023-02-02T01:56:30.982Z,3.33
2023-02-02T01:58:58.927Z,3.35
2023-02-02T02:01:27.104Z,3.35
2023-02-02T02:03:55.174Z,3.34
2023-02-02T02:06:26.089Z,3.31
2023-02-02T02:09:03.754Z,3.29
2023-02-02T02:11:32.808Z,3.27
2023-02-02T02:14:22.915Z,3.27
2023-02-02T02:17:18.429Z,3.20
2023-02-02T02:20:23.787Z,3.11
2023-02-02T02:23:48.752Z,3.04
2023-02-02T02:26:35.480Z,3.02
2023-02-02T02:29:26.647Z,3.04
2023-02-02T02:32:07.020Z,3.07
2023-02-02T02:35:14.263Z,3.12
2023-02-02T02:37:54.415Z,3.11
2023-02-02T02:40:54.085Z,3.11
2023-02-02T02:43:40.720Z,3.10
2023-02-02T02:46:09.712Z,3.08
2023-02-02T02:48:37.832Z,3.09
2023-02-02T02:51:29.655Z,3.10
2023-02-02T02:53:57.626Z,3.07
2023-02-02T02:56:32.064Z,3.07
2023-02-02T02:59:09.816Z,3.06
2023-02-02T03:01:48.426Z,3.05
2023-02-02T03:04:27.214Z,3.02
2023-02-02T03:06:58.110Z,3.03
2023-02-02T03:09:29.602Z,3.03
2023-02-02T03:11:57.549Z,3.03
2023-02-02T03:14:25.491Z,3.02
2023-02-02T03:16:53.512Z,3.03
2023-02-02T03:19:21.583Z,3.03
2023-02-02T03:21:49.602Z,3.01
2023-02-02T03:24:17.762Z,3.04
2023-02-02T03:26:46.024Z,3.04
2023-02-02T03:29:13.990Z,3.03
2023-02-02T03:31:41.909Z,3.00
2023-02-02T03:34:09.858Z,2.97
2023-02-02T03:36:37.966Z,2.93
2023-02-02T03:39:05.988Z,2.93
2023-02-02T03:41:34.078Z,2.91
2023-02-02T03:44:01.997Z,2.91
2023-02-02T03:46:30.096Z,2.90
2023-02-02T03:48:58.031Z,2.88
2023-02-02T03:51:26.178Z,2.89
2023-02-02T03:53:54.349Z,2.89
2023-02-02T03:56:22.236Z,2.87
2023-02-02T03:58:50.440Z,2.83
2023-02-02T04:01:18.470Z,2.82
2023-02-02T04:03:46.491Z,2.79
2023-02-02T04:06:14.430Z,2.77
2023-02-02T04:08:42.363Z,2.77
2023-02-02T04:11:10.931Z,2.72
2023-02-02T04:13:40.054Z,2.73
2023-02-02T04:16:08.152Z,2.72
2023-02-02T04:18:38.337Z,2.66
2023-02-02T04:21:06.964Z,2.64
2023-02-02T04:23:35.288Z,2.59
2023-02-02T04:26:03.352Z,2.52
2023-02-02T04:28:31.542Z,2.49
2023-02-02T04:30:59.571Z,2.44
2023-02-02T04:33:27.898Z,2.40
2023-02-02T04:35:56.456Z,2.36
2023-02-02T04:38:24.452Z,2.35
2023-02-02T04:40:52.482Z,2.31
2023-02-02T04:43:20.424Z,2.22
2023-02-02T04:45:48.511Z,2.16
2023-02-02T04:48:16.618Z,2.18
2023-02-02T04:50:44.639Z,2.18
2023-02-02T04:53:12.595Z,2.15
2023-02-02T04:55:40.724Z,2.11
2023-02-02T04:58:09.135Z,2.04
2023-02-02T05:00:37.158Z,2.01
2023-02-02T05:03:05.279Z,1.97
2023-02-02T05:05:33.314Z,1.94
2023-02-02T05:08:01.295Z,1.93
2023-02-02T05:10:29.359Z,1.92
2023-02-02T05:12:57.389Z,1.91
2023-02-02T05:15:25.745Z,1.86
2023-02-02T05:17:54.011Z,1.82
2023-02-02T05:20:21.967Z,1.78
2023-02-02T05:22:50.374Z,1.78
2023-02-02T05:25:18.458Z,1.78
2023-02-02T05:27:46.652Z,1.78
2023-02-02T05:30:14.910Z,1.80
2023-02-02T05:32:42.936Z,1.82
2023-02-02T05:35:10.966Z,1.81
2023-02-02T05:37:38.921Z,1.77
2023-02-02T05:40:07.511Z,1.75
2023-02-02T05:42:35.522Z,1.75
2023-02-02T05:45:03.718Z,1.78
2023-02-02T05:47:31.865Z,1.79
2023-02-02T05:49:59.869Z,1.81
2023-02-02T05:52:33.677Z,1.83
2023-02-02T05:55:01.971Z,1.84
2023-02-02T05:57:30.093Z,1.82
2023-02-02T05:59:58.124Z,1.82
2023-02-02T06:02:26.232Z,1.80
2023-02-02T06:04:54.455Z,1.76
2023-02-02T06:07:22.454Z,1.79
2023-02-02T06:09:50.502Z,1.82
2023-02-02T06:12:19.099Z,1.81
2023-02-02T06:14:47.098Z,1.82
2023-02-02T06:17:14.998Z,1.86
2023-02-02T06:19:42.985Z,1.87
2023-02-02T06:22:10.930Z,1.90
2023-02-02T06:24:38.902Z,1.92
2023-02-02T06:27:06.925Z,1.92
2023-02-02T06:29:34.944Z,1.96
2023-02-02T06:32:03.820Z,1.97
2023-02-02T06:34:31.854Z,1.98
2023-02-02T06:36:59.854Z,2.01
2023-02-02T06:39:27.804Z,1.98
2023-02-02T06:41:55.758Z,1.96
2023-02-02T06:44:23.720Z,1.98
2023-02-02T06:46:51.733Z,1.97
2023-02-02T06:49:19.681Z,1.97
2023-02-02T06:51:48.854Z,2.01
2023-02-02T06:54:16.881Z,2.01
2023-02-02T06:56:44.897Z,2.04
2023-02-02T06:59:12.903Z,2.06
2023-02-02T07:01:41.035Z,2.09
2023-02-02T07:04:09.058Z,2.11
2023-02-02T07:06:37.177Z,2.14
2023-02-02T07:09:05.197Z,2.17
2023-02-02T07:11:39.127Z,2.17
2023-02-02T07:14:12.032Z,2.17
2023-02-02T07:16:40.109Z,2.21
2023-02-02T07:19:08.380Z,2.26
2023-02-02T07:21:36.681Z,2.35
2023-02-02T07:24:05.491Z,2.40
2023-02-02T07:26:35.013Z,2.47
2023-02-02T07:29:04.661Z,2.56
2023-02-02T07:31:35.817Z,2.59
2023-02-02T07:34:04.611Z,2.61
2023-02-02T07:36:32.927Z,2.63
2023-02-02T07:39:04.268Z,2.69
2023-02-02T07:41:34.111Z,2.77
2023-02-02T07:44:02.235Z,2.83
2023-02-02T07:46:30.327Z,2.83
2023-02-02T07:48:59.236Z,2.77
2023-02-02T07:51:27.644Z,2.84
2023-02-02T07:53:58.713Z,2.95
2023-02-02T07:56:28.339Z,3.00
2023-02-02T07:58:56.706Z,3.04
2023-02-02T08:01:26.465Z,3.06
2023-02-02T08:03:55.709Z,3.12
2023-02-02T08:06:31.599Z,3.18
2023-02-02T08:08:59.971Z,3.25
2023-02-02T08:11:28.339Z,3.26
2023-02-02T08:13:58.024Z,3.24
2023-02-02T08:16:26.684Z,3.18
2023-02-02T08:18:54.959Z,3.21
2023-02-02T08:21:23.148Z,3.20
2023-02-02T08:23:52.280Z,3.20
2023-02-02T08:26:25.207Z,3.19
2023-02-02T08:29:01.073Z,3.16
2023-02-02T08:31:34.640Z,3.14
2023-02-02T08:34:03.096Z,3.16
2023-02-02T08:36:31.318Z,3.23
2023-02-02T08:39:04.350Z,3.32
2023-02-02T08:41:32.661Z,3.41
2023-02-02T08:44:00.890Z,3.45
2023-02-02T08:46:29.478Z,3.48
2023-02-02T08:48:57.734Z,3.47
2023-02-02T08:51:25.742Z,3.41
2023-02-02T08:53:54.087Z,3.38
2023-02-02T08:56:22.450Z,3.38
2023-02-02T08:58:55.133Z,3.44
2023-02-02T09:01:24.325Z,3.54
2023-02-02T09:03:57.308Z,3.71
2023-02-02T09:06:29.244Z,3.86
2023-02-02T09:08:57.342Z,4.00
2023-02-02T09:11:25.369Z,4.00
2023-02-02T09:13:55.434Z,3.99
2023-02-02T09:16:23.855Z,4.16
2023-02-02T09:18:52.160Z,4.10
2023-02-02T09:21:20.522Z,4.12
2023-02-02T09:23:49.341Z,4.17
2023-02-02T09:26:18.830Z,4.13
2023-02-02T09:28:48.918Z,4.14
2023-02-02T09:31:17.010Z,4.18
2023-02-02T09:33:45.471Z,4.23
2023-02-02T09:36:20.903Z,4.12
2023-02-02T09:38:50.459Z,4.07
2023-02-02T09:41:27.775Z,4.02
2023-02-02T09:44:03.543Z,4.07
2023-02-02T09:47:08.972Z,4.03
2023-02-02T09:50:23.080Z,4.05
2023-02-02T09:53:21.494Z,4.10
2023-02-02T09:55:54.289Z,4.04
2023-02-02T09:58:37.124Z,4.05
2023-02-02T10:01:14.347Z,4.09
2023-02-02T10:04:01.948Z,4.09
2023-02-02T10:06:30.032Z,4.21
2023-02-02T10:09:24.268Z,4.27
2023-02-02T10:12:00.741Z,4.20
2023-02-02T10:14:37.143Z,4.10
2023-02-02T10:17:32.095Z,4.15
2023-02-02T10:20:16.022Z,4.33
2023-02-02T10:22:44.076Z,4.33
2023-02-02T10:25:13.550Z,4.31
2023-02-02T10:27:41.565Z,4.18
2023-02-02T10:30:20.170Z,4.17
2023-02-02T10:32:50.788Z,4.20
2023-02-02T10:35:39.394Z,4.26
2023-02-02T10:38:09.928Z,4.43
2023-02-02T10:40:53.690Z,4.58
2023-02-02T10:43:45.936Z,4.89
2023-02-02T10:46:23.576Z,4.99
2023-02-02T10:48:53.284Z,5.13
2023-02-02T10:51:29.648Z,5.09
2023-02-02T10:53:59.119Z,5.08
2023-02-02T10:56:48.623Z,4.86
2023-02-02T10:59:19.392Z,4.63
2023-02-02T11:01:48.771Z,4.69
2023-02-02T11:04:35.556Z,4.80
2023-02-02T11:07:03.886Z,4.86
2023-02-02T11:09:37.623Z,5.03
2023-02-02T11:12:31.106Z,4.98
2023-02-02T11:15:07.801Z,4.89
2023-02-02T11:17:36.138Z,5.04
2023-02-02T11:20:29.796Z,5.01
2023-02-02T11:23:02.435Z,4.86
2023-02-02T11:25:34.807Z,4.91
2023-02-02T11:28:24.903Z,4.98
2023-02-02T11:30:53.449Z,4.98
2023-02-02T11:33:33.348Z,5.03
2023-02-02T11:36:22.526Z,5.35
2023-02-02T11:39:14.134Z,5.58
2023-02-02T11:41:42.254Z,5.67
2023-02-02T11:44:25.348Z,5.62
2023-02-02T11:46:53.602Z,5.45
2023-02-02T11:49:22.206Z,5.49
2023-02-02T11:52:04.843Z,5.51
2023-02-02T11:54:34.832Z,5.54
2023-02-02T11:57:05.375Z,5.55
2023-02-02T11:59:39.112Z,5.42
2023-02-02T12:02:13.578Z,5.24
2023-02-02T12:04:41.634Z,5.11
2023-02-02T12:07:39.014Z,5.00
2023-02-02T12:10:25.513Z,4.80
2023-02-02T12:13:03.513Z,4.67
2023-02-02T12:16:08.910Z,4.64
2023-02-02T12:19:13.914Z,4.66
2023-02-02T12:21:48.051Z,4.70
2023-02-02T12:24:25.181Z,4.63
2023-02-02T12:27:17.148Z,4.62
2023-02-02T12:30:03.651Z,4.75
2023-02-02T12:32:59.807Z,4.76
2023-02-02T12:35:53.890Z,4.79
2023-02-02T12:38:30.145Z,4.64
2023-02-02T12:41:17.274Z,4.71
2023-02-02T12:43:50.972Z,5.15
2023-02-02T12:46:22.562Z,5.24
2023-02-02T12:48:56.746Z,5.27
2023-02-02T12:51:46.424Z,5.17
2023-02-02T12:54:34.851Z,5.31
2023-02-02T12:57:21.236Z,5.30
2023-02-02T13:00:04.653Z,5.23
2023-02-02T13:02:57.523Z,5.14
2023-02-02T13:08:59.240Z,5.49
2023-02-02T13:11:56.000Z,5.85
2023-02-02T13:14:42.115Z,5.85
2023-02-02T13:17:21.936Z,5.90
2023-02-02T13:19:53.828Z,5.45
2023-02-02T13:22:28.786Z,5.21
2023-02-02T13:25:01.384Z,4.94
2023-02-02T13:27:29.569Z,4.93
2023-02-02T13:30:10.489Z,4.65
2023-02-02T13:32:40.715Z,4.60
2023-02-02T13:35:21.041Z,4.44
2023-02-02T13:38:21.615Z,4.39
2023-02-02T13:40:50.288Z,4.30
2023-02-02T13:43:27.778Z,4.28
2023-02-02T13:46:12.191Z,4.26
2023-02-02T13:48:58.842Z,4.22
2023-02-02T13:51:40.106Z,4.33
2023-02-02T13:54:24.297Z,4.52
2023-02-02T13:57:10.773Z,4.60
2023-02-02T13:59:58.197Z,4.61
2023-02-02T14:02:39.007Z,4.37
2023-02-02T14:05:07.849Z,4.18
2023-02-02T14:07:45.832Z,4.14
2023-02-02T14:10:28.275Z,3.95
2023-02-02T14:12:56.894Z,3.70
2023-02-02T14:15:39.135Z,3.70
2023-02-02T14:18:07.383Z,3.70
2023-02-02T14:20:41.524Z,3.78
2023-02-02T14:23:51.781Z,3.75
2023-02-02T14:26:46.429Z,3.75
2023-02-02T14:29:32.999Z,3.70
2023-02-02T14:32:01.980Z,3.67
2023-02-02T14:34:37.608Z,3.59
2023-02-02T14:37:31.261Z,3.55
2023-02-02T14:40:12.996Z,3.57
2023-02-02T14:43:09.912Z,3.47
2023-02-02T14:45:41.867Z,3.45
2023-02-02T14:48:19.971Z,3.43
2023-02-02T14:50:58.431Z,3.41
2023-02-02T14:53:36.366Z,3.30
2023-02-02T14:56:12.795Z,3.36
2023-02-02T14:59:00.589Z,3.34
2023-02-02T15:01:31.261Z,3.22
2023-02-02T15:04:21.928Z,3.15
2023-02-02T15:06:52.780Z,3.09
2023-02-02T15:09:21.207Z,3.08
2023-02-02T15:12:04.704Z,3.03
2023-02-02T15:14:36.271Z,2.93
2023-02-02T15:17:07.431Z,2.85
2023-02-02T15:19:41.174Z,2.84
2023-02-02T15:22:24.218Z,2.75
2023-02-02T15:24:53.109Z,2.63
2023-02-02T15:27:21.361Z,2.51
2023-02-02T15:29:50.909Z,2.45
2023-02-02T15:32:22.722Z,2.35
2023-02-02T15:34:53.292Z,2.29
2023-02-02T15:37:40.124Z,2.23
2023-02-02T15:40:21.993Z,2.14
2023-02-02T15:42:56.006Z,2.09
2023-02-02T15:45:45.884Z,2.04
2023-02-02T15:48:30.452Z,1.98
2023-02-02T15:51:05.256Z,1.93
2023-02-02T15:53:34.568Z,1.88
2023-02-02T15:56:06.861Z,1.87
2023-02-02T15:58:38.316Z,1.82
2023-02-02T16:01:17.732Z,1.80
2023-02-02T16:03:47.101Z,1.73
2023-02-02T16:06:15.155Z,1.73
2023-02-02T16:08:43.422Z,1.70
2023-02-02T16:11:18.791Z,1.68
2023-02-02T16:14:10.756Z,1.72
2023-02-02T16:16:39.927Z,1.77
2023-02-02T16:19:25.560Z,1.79
2023-02-02T16:22:07.222Z,1.73
2023-02-02T16:24:37.372Z,1.71
2023-02-02T16:27:06.825Z,1.70
2023-02-02T16:29:34.991Z,1.66
2023-02-02T16:32:03.138Z,1.56
2023-02-02T16:34:40.659Z,1.50
2023-02-02T16:37:38.356Z,1.41
2023-02-02T16:40:21.902Z,1.32
2023-02-02T16:43:07.523Z,1.28
2023-02-02T16:45:42.890Z,1.25
2023-02-02T16:48:20.356Z,1.25
2023-02-02T16:50:48.343Z,1.30
2023-02-02T16:53:23.053Z,1.34
2023-02-02T16:55:52.057Z,1.38
2023-02-02T16:58:22.028Z,1.34
2023-02-02T17:01:14.956Z,1.32
2023-02-02T17:03:49.400Z,1.26
2023-02-02T17:06:17.385Z,1.21
2023-02-02T17:08:45.443Z,1.15
2023-02-02T17:11:27.284Z,1.08
2023-02-02T17:13:55.634Z,1.01
2023-02-02T17:16:24.837Z,0.96
2023-02-02T17:18:53.237Z,0.91
2023-02-02T17:21:23.127Z,0.87
2023-02-02T17:23:56.455Z,0.82
2023-02-02T17:26:24.492Z,0.77
2023-02-02T17:28:55.672Z,0.77
2023-02-02T17:31:23.989Z,0.78
2023-02-02T17:33:52.070Z,0.75
2023-02-02T17:36:22.702Z,0.68
2023-02-02T17:38:51.182Z,0.63
2023-02-02T17:41:19.499Z,0.65
2023-02-02T17:43:47.830Z,0.64
2023-02-02T17:46:18.165Z,0.62
2023-02-02T17:48:46.826Z,0.56
2023-02-02T17:51:16.367Z,0.50
2023-02-02T17:53:45.417Z,0.43
2023-02-02T17:56:13.697Z,0.40
2023-02-02T17:58:41.959Z,0.38
2023-02-02T18:01:11.554Z,0.39
2023-02-02T18:03:40.820Z,0.37
2023-02-02T18:06:09.874Z,0.31
2023-02-02T18:08:38.358Z,0.28
2023-02-02T18:11:06.946Z,0.25
2023-02-02T18:13:35.425Z,0.23
2023-02-02T18:16:06.239Z,0.17
2023-02-02T18:18:37.953Z,0.06
2023-02-02T18:21:10.682Z,-0.06
2023-02-02T18:23:39.521Z,-0.14
2023-02-02T18:26:12.449Z,-0.15
2023-02-02T18:28:40.844Z,-0.14
2023-02-02T18:31:14.181Z,-0.11
2023-02-02T18:33:42.775Z,-0.09
2023-02-02T18:36:15.256Z,-0.07
2023-02-02T18:38:45.467Z,-0.08
2023-02-02T18:41:14.221Z,-0.12
2023-02-02T18:43:42.486Z,-0.08
2023-02-02T18:46:14.684Z,-0.08
2023-02-02T18:48:43.854Z,-0.07
2023-02-02T18:51:16.723Z,-0.05
2023-02-02T18:53:45.617Z,-0.06
2023-02-02T18:56:14.058Z,-0.06
2023-02-02T18:58:42.844Z,-0.11
2023-02-02T19:01:15.728Z,-0.10
2023-02-02T19:03:51.382Z,-0.09
2023-02-02T19:06:38.711Z,-0.11
2023-02-02T19:09:09.667Z,-0.10
2023-02-02T19:11:39.379Z,-0.09
2023-02-02T19:14:26.852Z,-0.13
2023-02-02T19:17:01.705Z,-0.14
2023-02-02T19:19:36.822Z,-0.21
2023-02-02T19:22:23.435Z,-0.21
2023-02-02T19:24:51.850Z,-0.22
2023-02-02T19:27:21.925Z,-0.24
2023-02-02T19:29:52.044Z,-0.28
2023-02-02T19:32:25.152Z,-0.32
2023-02-02T19:34:56.030Z,-0.34
2023-02-02T19:37:28.758Z,-0.36
2023-02-02T19:40:02.998Z,-0.38
2023-02-02T19:42:31.668Z,-0.44
2023-02-02T19:45:00.105Z,-0.49
2023-02-02T19:47:31.806Z,-0.53
2023-02-02T19:50:02.697Z,-0.59
2023-02-02T19:52:31.007Z,-0.66
2023-02-02T19:54:59.095Z,-0.66
2023-02-02T19:57:33.524Z,-0.68
2023-02-02T20:00:01.995Z,-0.77
2023-02-02T20:03:02.958Z,-0.85
2023-02-02T20:05:41.698Z,-0.95
2023-02-02T20:08:36.735Z,-1.05
2023-02-02T20:11:35.774Z,-1.13
2023-02-02T20:14:22.979Z,-1.22
2023-02-02T20:16:52.933Z,-1.29
2023-02-02T20:19:26.435Z,-1.38
2023-02-02T20:21:54.650Z,-1.49
2023-02-02T20:24:23.516Z,-1.55
2023-02-02T20:26:53.219Z,-1.59
2023-02-02T20:29:28.193Z,-1.62
2023-02-02T20:31:56.505Z,-1.66
2023-02-02T20:34:30.655Z,-1.72
2023-02-02T20:37:31.954Z,-1.83
2023-02-02T20:40:02.110Z,-1.94
2023-02-02T20:42:31.306Z,-2.06
2023-02-02T20:44:59.429Z,-2.17
2023-02-02T20:47:27.835Z,-2.29
2023-02-02T20:49:57.523Z,-2.40
2023-02-02T20:52:26.399Z,-2.52
2023-02-02T20:54:54.611Z,-2.61
2023-02-02T20:57:22.879Z,-2.65
2023-02-02T20:59:57.461Z,-2.64
2023-02-02T21:02:25.728Z,-2.63
2023-02-02T21:04:54.130Z,-2.62
2023-02-02T21:07:22.365Z,-2.62
2023-02-02T21:09:50.942Z,-2.65
2023-02-02T21:12:20.041Z,-2.71
2023-02-02T21:14:48.367Z,-2.79
2023-02-02T21:17:16.465Z,-2.88
2023-02-02T21:19:44.481Z,-2.96
2023-02-02T21:22:12.635Z,-3.02
2023-02-02T21:24:40.954Z,-3.09
2023-02-02T21:27:09.458Z,-3.13
2023-02-02T21:29:38.285Z,-3.15
2023-02-02T21:32:06.532Z,-3.13
2023-02-02T21:34:37.226Z,-3.09
2023-02-02T21:37:14.228Z,-3.05
2023-02-02T21:39:56.147Z,-2.99
2023-02-02T21:42:24.917Z,-2.94
2023-02-02T21:44:58.831Z,-2.90
2023-02-02T21:47:33.834Z,-2.90
2023-02-02T21:50:15.365Z,-2.92
2023-02-02T21:52:43.425Z,-2.97
2023-02-02T21:55:23.183Z,-3.04
2023-02-02T21:57:51.345Z,-3.12
2023-02-02T22:00:28.350Z,-3.20
2023-02-02T22:02:56.870Z,-3.23
2023-02-02T22:05:37.574Z,-3.23
2023-02-02T22:08:25.937Z,-3.18
2023-02-02T22:10:54.172Z,-3.14
2023-02-02T22:13:23.814Z,-3.09
2023-02-02T22:15:52.548Z,-3.03
2023-02-02T22:18:24.527Z,-3.03
2023-02-02T22:20:54.461Z,-3.03
2023-02-02T22:23:27.578Z,-3.05
2023-02-02T22:25:56.425Z,-3.05
2023-02-02T22:28:28.723Z,-3.01
2023-02-02T22:30:57.140Z,-2.93
2023-02-02T22:33:26.640Z,-2.89
2023-02-02T22:35:54.626Z,-2.85
2023-02-02T22:38:24.107Z,-2.83
2023-02-02T22:40:52.526Z,-2.87
2023-02-02T22:43:21.156Z,-2.90
2023-02-02T22:45:49.329Z,-2.95
2023-02-02T22:48:17.313Z,-3.00
2023-02-02T22:50:45.832Z,-3.05
2023-02-02T22:53:16.155Z,-3.10
2023-02-02T22:55:44.195Z,-3.11
2023-02-02T22:58:12.675Z,-3.10
2023-02-02T23:00:40.665Z,-3.08
2023-02-02T23:03:08.789Z,-3.04
2023-02-02T23:05:39.189Z,-3.00
2023-02-02T23:08:07.564Z,-2.96
2023-02-02T23:10:35.995Z,-2.92
2023-02-02T23:13:04.265Z,-2.91
2023-02-02T23:15:32.269Z,-2.91
2023-02-02T23:18:00.412Z,-2.94
2023-02-02T23:20:29.088Z,-2.98
2023-02-02T23:22:57.568Z,-3.01
2023-02-02T23:25:25.623Z,-3.03
2023-02-02T23:27:56.870Z,-3.00
2023-02-02T23:30:25.540Z,-2.93
2023-02-02T23:32:53.817Z,-2.84
2023-02-02T23:35:21.763Z,-2.78
2023-02-02T23:37:52.125Z,-2.76
2023-02-02T23:40:20.633Z,-2.79
2023-02-02T23:42:48.508Z,-2.85
2023-02-02T23:45:16.738Z,-2.90
2023-02-02T23:47:44.687Z,-2.92
2023-02-02T23:50:12.644Z,-2.91
2023-02-02T23:52:40.702Z,-2.87
2023-02-02T23:55:09.125Z,-2.83
2023-02-02T23:57:37.173Z,-2.84
